createdAt,value
2022-12-18T00:01:37.975Z,97800.19
2022-12-18T00:04:21.015Z,97801.91
2022-12-18T00:06:53.984Z,97808.63
2022-12-18T00:09:25.573Z,97805.63
2022-12-18T00:14:47.350Z,97811.34
2022-12-18T00:17:18.914Z,97809.78
2022-12-18T00:19:50.468Z,97817.59
2022-12-18T00:22:21.983Z,97811.16
2022-12-18T00:24:53.545Z,97818.38
2022-12-18T00:27:25.271Z,97809.44
2022-12-18T00:29:56.850Z,97815.91
2022-12-18T00:32:28.380Z,97813.06
2022-12-18T00:35:00.232Z,97823.69
2022-12-18T00:37:31.820Z,97825.63
2022-12-18T00:40:04.455Z,97816.00
2022-12-18T00:42:36.042Z,97823.97
2022-12-18T00:45:12.632Z,97820.47
2022-12-18T00:47:44.826Z,97821.75
2022-12-18T00:50:16.549Z,97816.91
2022-12-18T00:52:48.888Z,97828.66
2022-12-18T00:55:20.538Z,97827.44
2022-12-18T00:57:53.213Z,97833.03
2022-12-18T01:00:24.811Z,97832.81
2022-12-18T01:02:56.708Z,97837.84
2022-12-18T01:05:30.004Z,97852.78
2022-12-18T01:08:01.598Z,97846.09
2022-12-18T01:10:33.219Z,97846.13
2022-12-18T01:13:04.830Z,97854.81
2022-12-18T01:15:36.647Z,97844.69
2022-12-18T01:18:08.360Z,97846.66
2022-12-18T01:20:39.955Z,97848.25
2022-12-18T01:23:11.562Z,97853.81
2022-12-18T01:25:43.168Z,97860.19
2022-12-18T01:28:15.153Z,97874.56
2022-12-18T01:30:46.830Z,97881.56
2022-12-18T01:33:18.399Z,97883.22
2022-12-18T01:35:49.961Z,97887.94
2022-12-18T01:38:21.527Z,97881.06
2022-12-18T01:40:58.844Z,97887.25
2022-12-18T01:43:46.980Z,97891.16
2022-12-18T01:46:20.777Z,97895.00
2022-12-18T01:49:02.081Z,97890.91
2022-12-18T01:51:34.144Z,97891.69
2022-12-18T01:54:05.700Z,97898.44
2022-12-18T01:56:37.770Z,97900.34
2022-12-18T01:59:13.100Z,97896.19
2022-12-18T02:01:45.264Z,97912.09
2022-12-18T02:04:25.704Z,97897.66
2022-12-18T02:07:09.293Z,97902.53
2022-12-18T02:09:54.780Z,97905.19
2022-12-18T02:12:45.706Z,97915.34
2022-12-18T02:15:29.219Z,97916.00
2022-12-18T02:18:10.552Z,97916.13
2022-12-18T02:20:47.593Z,97911.97
2022-12-18T02:23:37.763Z,97918.22
2022-12-18T02:26:28.483Z,97912.88
2022-12-18T02:29:09.140Z,97904.81
2022-12-18T02:31:52.454Z,97911.84
2022-12-18T02:34:30.886Z,97918.75
2022-12-18T02:37:09.465Z,97919.38
2022-12-18T02:39:47.576Z,97920.06
2022-12-18T02:42:20.847Z,97915.81
2022-12-18T02:44:53.464Z,97918.66
2022-12-18T02:47:34.374Z,97921.78
2022-12-18T02:50:32.403Z,97914.38
2022-12-18T02:53:18.366Z,97921.13
2022-12-18T02:56:14.665Z,97924.31
2022-12-18T02:59:00.109Z,97926.31
2022-12-18T03:01:48.687Z,97930.97
2022-12-18T03:04:50.433Z,97925.44
2022-12-18T03:07:34.189Z,97925.53
2022-12-18T03:10:12.449Z,97936.94
2022-12-18T03:12:53.614Z,97935.69
2022-12-18T03:15:35.054Z,97932.06
2022-12-18T03:18:24.010Z,97929.72
2022-12-18T03:21:04.592Z,97927.78
2022-12-18T03:23:45.127Z,97933.13
2022-12-18T03:26:23.667Z,97927.91
2022-12-18T03:29:24.088Z,97929.41
2022-12-18T03:32:04.129Z,97927.94
2022-12-18T03:34:41.900Z,97935.25
2022-12-18T03:37:16.335Z,97930.16
2022-12-18T03:39:48.004Z,97937.16
2022-12-18T03:42:29.548Z,97934.03
2022-12-18T03:45:23.169Z,97932.13
2022-12-18T03:48:01.485Z,97929.03
2022-12-18T03:50:40.561Z,97941.94
2022-12-18T03:53:40.551Z,97934.84
2022-12-18T03:56:17.173Z,97936.06
2022-12-18T03:58:53.557Z,97935.84
2022-12-18T04:01:40.815Z,97935.81
2022-12-18T04:04:15.337Z,97933.34
2022-12-18T04:06:51.275Z,97934.81
2022-12-18T04:09:25.364Z,97937.63
2022-12-18T04:11:57.926Z,97934.81
2022-12-18T04:14:30.186Z,97939.81
2022-12-18T04:17:03.538Z,97942.72
2022-12-18T04:19:37.803Z,97935.81
2022-12-18T04:22:11.340Z,97937.56
2022-12-18T04:24:48.182Z,97938.59
2022-12-18T04:27:27.984Z,97938.59
2022-12-18T04:30:00.100Z,97943.63
2022-12-18T04:32:31.867Z,97937.06
2022-12-18T04:35:05.965Z,97935.81
2022-12-18T04:37:38.169Z,97946.19
2022-12-18T04:40:11.387Z,97946.16
2022-12-18T04:42:47.407Z,97951.19
2022-12-18T04:45:19.018Z,97954.00
2022-12-18T04:47:50.581Z,97955.38
2022-12-18T04:50:22.209Z,97957.06
2022-12-18T04:52:54.202Z,97961.47
2022-12-18T04:55:25.962Z,97957.13
2022-12-18T04:57:57.493Z,97958.66
2022-12-18T05:00:29.048Z,97959.75
2022-12-18T05:03:02.251Z,97966.88
2022-12-18T05:05:36.384Z,97961.19
2022-12-18T05:08:07.986Z,97965.69
2022-12-18T05:10:39.492Z,97971.84
2022-12-18T05:13:11.357Z,97966.22
2022-12-18T05:15:43.029Z,97971.28
2022-12-18T05:18:14.645Z,97976.72
2022-12-18T05:20:46.156Z,97974.97
2022-12-18T05:23:18.144Z,97974.81
2022-12-18T05:25:56.497Z,97979.38
2022-12-18T05:28:30.352Z,97984.28
2022-12-18T05:31:04.484Z,97983.06
2022-12-18T05:33:36.973Z,97983.34
2022-12-18T05:36:10.278Z,97985.38
2022-12-18T05:38:42.235Z,97987.53
2022-12-18T05:41:13.849Z,97988.41
2022-12-18T05:43:45.409Z,97996.50
2022-12-18T05:46:18.370Z,97991.34
2022-12-18T05:48:49.937Z,97990.31
2022-12-18T05:51:23.107Z,97989.47
2022-12-18T05:53:54.646Z,97993.66
2022-12-18T05:56:26.478Z,97999.44
2022-12-18T05:58:58.033Z,98008.38
2022-12-18T06:01:29.611Z,98005.94
2022-12-18T06:04:01.236Z,98006.22
2022-12-18T06:06:33.426Z,98003.00
2022-12-18T06:09:05.392Z,98003.78
2022-12-18T06:11:38.408Z,98002.72
2022-12-18T06:14:10.815Z,97994.44
2022-12-18T06:16:42.401Z,97998.31
2022-12-18T06:19:16.796Z,97996.16
2022-12-18T06:21:48.426Z,98002.69
2022-12-18T06:24:20.010Z,97998.31
2022-12-18T06:26:51.629Z,98003.09
2022-12-18T06:29:23.207Z,98012.91
2022-12-18T06:31:54.785Z,98020.63
2022-12-18T06:34:27.056Z,98021.44
2022-12-18T06:36:59.000Z,98021.84
2022-12-18T06:39:31.401Z,98029.19
2022-12-18T06:42:04.459Z,98031.19
2022-12-18T06:44:36.047Z,98038.34
2022-12-18T06:47:07.559Z,98041.97
2022-12-18T06:49:39.136Z,98046.88
2022-12-18T06:52:10.786Z,98053.34
2022-12-18T06:54:42.293Z,98060.75
2022-12-18T06:57:13.819Z,98063.50
2022-12-18T06:59:45.353Z,98069.09
2022-12-18T07:02:17.002Z,98071.94
2022-12-18T07:04:48.644Z,98061.03
2022-12-18T07:07:20.451Z,98064.94
2022-12-18T07:09:52.356Z,98070.38
2022-12-18T07:12:23.969Z,98067.31
2022-12-18T07:14:55.642Z,98070.66
2022-12-18T07:17:27.287Z,98075.25
2022-12-18T07:19:58.843Z,98078.97
2022-12-18T07:22:30.844Z,98083.09
2022-12-18T07:25:02.431Z,98077.38
2022-12-18T07:27:33.992Z,98084.69
2022-12-18T07:30:06.550Z,98089.09
2022-12-18T07:32:38.151Z,98084.91
2022-12-18T07:35:09.687Z,98085.19
2022-12-18T07:37:41.206Z,98094.72
2022-12-18T07:40:13.154Z,98096.38
2022-12-18T07:42:44.854Z,98089.88
2022-12-18T07:45:16.539Z,98095.69
2022-12-18T07:47:48.068Z,98095.94
2022-12-18T07:50:20.147Z,98097.50
2022-12-18T07:52:51.822Z,98105.06
2022-12-18T07:55:23.394Z,98110.56
2022-12-18T07:57:59.400Z,98114.03
2022-12-18T08:00:32.397Z,98115.13
2022-12-18T08:03:04.141Z,98112.63
2022-12-18T08:05:35.735Z,98106.69
2022-12-18T08:08:07.355Z,98116.00
2022-12-18T08:10:39.371Z,98116.28
2022-12-18T08:13:10.899Z,98118.81
2022-12-18T08:15:42.493Z,98114.75
2022-12-18T08:18:14.576Z,98119.94
2022-12-18T08:20:46.260Z,98109.81
2022-12-18T08:23:17.946Z,98120.78
2022-12-18T08:25:49.608Z,98112.03
2022-12-18T08:28:21.117Z,98104.06
2022-12-18T08:30:53.616Z,98100.97
2022-12-18T08:33:25.418Z,98103.88
2022-12-18T08:35:56.999Z,98105.53
2022-12-18T08:38:29.212Z,98102.72
2022-12-18T08:41:05.168Z,98108.34
2022-12-18T08:43:37.014Z,98104.56
2022-12-18T08:46:08.920Z,98113.25
2022-12-18T08:48:40.505Z,98107.81
2022-12-18T08:51:12.130Z,98112.56
2022-12-18T08:53:44.670Z,98111.53
2022-12-18T08:56:16.911Z,98110.53
2022-12-18T08:58:48.495Z,98106.41
2022-12-18T09:01:20.707Z,98117.91
2022-12-18T09:03:52.357Z,98124.25
2022-12-18T09:06:24.422Z,98113.84
2022-12-18T09:08:56.034Z,98114.53
2022-12-18T09:11:29.843Z,98107.75
2022-12-18T09:14:02.458Z,98112.41
2022-12-18T09:16:34.457Z,98119.50
2022-12-18T09:19:06.575Z,98117.53
2022-12-18T09:21:38.226Z,98130.13
2022-12-18T09:24:13.719Z,98125.69
2022-12-18T09:26:47.331Z,98121.06
2022-12-18T09:29:19.270Z,98128.53
2022-12-18T09:31:50.846Z,98114.56
2022-12-18T09:34:22.849Z,98115.44
2022-12-18T09:36:54.419Z,98117.63
2022-12-18T09:39:26.026Z,98123.88
2022-12-18T09:41:59.689Z,98125.06
2022-12-18T09:44:44.505Z,98125.50
2022-12-18T09:47:28.500Z,98119.22
2022-12-18T09:50:04.896Z,98119.88
2022-12-18T09:52:46.072Z,98112.56
2022-12-18T09:55:24.598Z,98116.47
2022-12-18T09:58:06.731Z,98113.63
2022-12-18T10:00:39.298Z,98115.38
2022-12-18T10:03:14.093Z,98115.72
2022-12-18T10:05:58.069Z,98112.22
2022-12-18T10:08:44.632Z,98105.09
2022-12-18T10:12:13.908Z,98106.50
2022-12-18T10:15:00.738Z,98108.06
2022-12-18T10:17:50.357Z,98109.78
2022-12-18T10:20:49.700Z,98116.56
2022-12-18T10:23:43.649Z,98110.78
2022-12-18T10:26:19.623Z,98110.25
2022-12-18T10:28:54.549Z,98125.16
2022-12-18T10:31:26.691Z,98110.56
2022-12-18T10:33:58.287Z,98118.19
2022-12-18T10:36:30.232Z,98116.16
2022-12-18T10:39:17.608Z,98119.50
2022-12-18T10:41:49.368Z,98114.94
2022-12-18T10:44:25.359Z,98112.41
2022-12-18T10:47:10.110Z,98118.75
2022-12-18T10:49:51.268Z,98105.88
2022-12-18T10:52:26.029Z,98105.19
2022-12-18T10:55:04.814Z,98106.38
2022-12-18T10:57:40.034Z,98102.25
2022-12-18T11:00:31.612Z,98099.00
2022-12-18T11:03:03.438Z,98103.75
2022-12-18T11:05:35.641Z,98098.06
2022-12-18T11:08:21.604Z,98090.19
2022-12-18T11:10:53.183Z,98092.34
2022-12-18T11:13:29.953Z,98096.03
2022-12-18T11:16:01.868Z,98094.59
2022-12-18T11:18:36.444Z,98095.50
2022-12-18T11:21:12.725Z,98089.91
2022-12-18T11:23:54.842Z,98092.59
2022-12-18T11:26:36.116Z,98089.75
2022-12-18T11:29:11.671Z,98093.72
2022-12-18T11:31:43.291Z,98094.41
2022-12-18T11:34:31.352Z,98102.41
2022-12-18T11:37:05.304Z,98089.19
2022-12-18T11:40:12.103Z,98091.00
2022-12-18T11:42:55.499Z,98097.59
2022-12-18T11:45:29.380Z,98088.50
2022-12-18T11:48:18.876Z,98081.69
2022-12-18T11:50:54.232Z,98076.84
2022-12-18T11:53:27.762Z,98072.31
2022-12-18T11:56:20.537Z,98063.19
2022-12-18T11:58:58.853Z,98059.41
2022-12-18T12:01:44.688Z,98053.81
2022-12-18T12:04:34.985Z,98046.06
2022-12-18T12:07:29.319Z,98054.03
2022-12-18T12:10:24.512Z,98032.81
2022-12-18T12:13:12.921Z,98032.81
2022-12-18T12:16:05.145Z,98024.81
2022-12-18T12:18:52.100Z,98018.50
2022-12-18T12:21:43.779Z,98011.38
2022-12-18T12:24:47.900Z,98007.72
2022-12-18T12:27:53.557Z,98008.81
2022-12-18T12:30:48.668Z,98006.31
2022-12-18T12:33:59.413Z,98007.38
2022-12-18T12:36:47.697Z,97998.63
2022-12-18T12:39:33.544Z,97999.31
2022-12-18T12:42:13.430Z,97983.81
2022-12-18T12:44:56.267Z,97991.03
2022-12-18T12:47:42.956Z,97993.00
2022-12-18T12:50:19.448Z,97986.41
2022-12-18T12:52:58.183Z,97992.53
2022-12-18T12:55:31.146Z,97987.31
2022-12-18T12:58:20.065Z,97990.34
2022-12-18T13:01:05.312Z,97978.84
2022-12-18T13:03:49.946Z,97979.91
2022-12-18T13:06:25.434Z,97980.94
2022-12-18T13:09:00.269Z,97980.91
2022-12-18T13:11:43.272Z,97971.53
2022-12-18T13:14:24.498Z,97968.19
2022-12-18T13:17:22.499Z,97969.78
2022-12-18T13:20:11.069Z,97972.94
2022-12-18T13:22:50.296Z,97960.91
2022-12-18T13:25:38.932Z,97966.59
2022-12-18T13:28:14.652Z,97973.13
2022-12-18T13:30:57.428Z,97986.28
2022-12-18T13:33:29.228Z,97986.84
2022-12-18T13:36:27.675Z,97970.28
2022-12-18T13:39:18.431Z,97977.28
2022-12-18T13:42:14.811Z,97970.19
2022-12-18T13:44:47.976Z,97967.94
2022-12-18T13:47:35.649Z,97979.19
2022-12-18T13:50:24.671Z,97974.13
2022-12-18T13:52:56.373Z,97969.38
2022-12-18T13:55:28.078Z,97961.22
2022-12-18T13:58:07.209Z,97957.00
2022-12-18T14:00:43.593Z,97957.47
2022-12-18T14:03:28.689Z,97959.78
2022-12-18T14:06:06.980Z,97955.94
2022-12-18T14:08:42.709Z,97947.56
2022-12-18T14:11:23.830Z,97959.34
2022-12-18T14:13:58.244Z,97959.06
2022-12-18T14:16:31.138Z,97964.25
2022-12-18T14:19:05.206Z,97963.69
2022-12-18T14:21:50.881Z,97972.56
2022-12-18T14:24:22.957Z,97980.34
2022-12-18T14:26:54.551Z,97971.47
2022-12-18T14:29:31.514Z,97973.41
2022-12-18T14:32:18.125Z,97970.03
2022-12-18T14:34:54.644Z,97977.66
2022-12-18T14:37:27.780Z,97983.22
2022-12-18T14:40:08.745Z,97982.84
2022-12-18T14:42:43.009Z,97979.72
2022-12-18T14:45:42.181Z,97982.34
2022-12-18T14:48:23.675Z,97986.22
2022-12-18T14:51:19.691Z,97986.97
2022-12-18T14:53:58.584Z,97981.41
2022-12-18T14:56:34.300Z,97980.53
2022-12-18T14:59:23.848Z,97989.09
2022-12-18T15:02:21.084Z,97996.16
2022-12-18T15:05:12.734Z,97984.31
2022-12-18T15:07:50.845Z,97985.19
2022-12-18T15:10:28.624Z,97995.50
2022-12-18T15:13:00.117Z,97998.03
2022-12-18T15:15:34.996Z,98004.44
2022-12-18T15:18:09.810Z,98000.69
2022-12-18T15:20:53.153Z,97995.50
2022-12-18T15:23:31.774Z,98002.06
2022-12-18T15:26:10.072Z,97997.34
2022-12-18T15:28:51.859Z,98008.41
2022-12-18T15:31:32.026Z,98005.09
2022-12-18T15:34:09.357Z,98001.50
2022-12-18T15:36:41.268Z,98006.03
2022-12-18T15:39:14.248Z,98005.50
2022-12-18T15:41:46.146Z,98012.09
2022-12-18T15:44:25.623Z,98011.38
2022-12-18T15:46:58.110Z,97998.34
2022-12-18T15:49:34.929Z,98003.75
2022-12-18T15:52:07.155Z,98008.69
2022-12-18T15:54:38.849Z,98012.28
2022-12-18T15:57:11.778Z,98002.09
2022-12-18T15:59:43.405Z,98006.03
2022-12-18T16:02:19.299Z,98011.31
2022-12-18T16:04:52.941Z,98009.38
2022-12-18T16:07:25.077Z,98013.88
2022-12-18T16:09:57.249Z,98007.13
2022-12-18T16:12:29.087Z,97997.03
2022-12-18T16:15:01.373Z,97996.75
2022-12-18T16:17:33.356Z,97989.66
2022-12-18T16:20:05.694Z,97992.75
2022-12-18T16:22:37.343Z,98000.75
2022-12-18T16:25:22.939Z,98003.78
2022-12-18T16:27:56.155Z,98007.53
2022-12-18T16:30:32.737Z,98010.75
2022-12-18T16:33:11.403Z,98006.78
2022-12-18T16:35:43.234Z,98010.22
2022-12-18T16:38:15.011Z,98017.47
2022-12-18T16:40:46.635Z,98020.38
2022-12-18T16:43:18.367Z,98009.28
2022-12-18T16:45:51.427Z,98015.00
2022-12-18T16:48:23.708Z,98017.50
2022-12-18T16:51:05.085Z,98012.66
2022-12-18T16:53:36.688Z,98012.59
2022-12-18T16:56:08.262Z,98014.78
2022-12-18T16:58:39.852Z,98009.50
2022-12-18T17:01:13.282Z,98008.75
2022-12-18T17:03:45.346Z,98010.56
2022-12-18T17:06:18.961Z,97999.69
2022-12-18T17:09:02.099Z,97990.78
2022-12-18T17:11:35.109Z,97999.88
2022-12-18T17:14:10.250Z,97991.09
2022-12-18T17:16:42.737Z,97996.00
2022-12-18T17:19:17.303Z,97992.22
2022-12-18T17:21:50.629Z,97980.97
2022-12-18T17:24:22.341Z,97996.81
2022-12-18T17:26:53.945Z,97996.53
2022-12-18T17:29:25.569Z,98009.72
2022-12-18T17:32:00.324Z,98024.41
2022-12-18T17:34:32.199Z,98021.75
2022-12-18T17:37:03.739Z,98020.16
2022-12-18T17:39:35.361Z,98023.09
2022-12-18T17:42:06.922Z,98023.03
2022-12-18T17:44:49.756Z,98016.69
2022-12-18T17:47:21.370Z,98020.47
2022-12-18T17:49:52.972Z,98012.91
2022-12-18T17:52:26.265Z,98004.81
2022-12-18T17:54:57.945Z,98004.81
2022-12-18T17:57:29.525Z,97999.16
2022-12-18T18:00:01.094Z,98001.59
2022-12-18T18:02:32.779Z,98010.25
2022-12-18T18:05:05.482Z,98016.19
2022-12-18T18:07:37.056Z,98017.44
2022-12-18T18:10:09.045Z,98013.34
2022-12-18T18:12:40.601Z,98011.03
2022-12-18T18:15:12.212Z,98014.25
2022-12-18T18:17:44.707Z,98018.47
2022-12-18T18:20:20.815Z,98012.25
2022-12-18T18:22:54.250Z,98015.59
2022-12-18T18:25:25.852Z,98010.94
2022-12-18T18:27:57.438Z,98012.06
2022-12-18T18:30:28.989Z,98002.78
2022-12-18T18:33:00.767Z,98007.91
2022-12-18T18:35:53.456Z,98016.31
2022-12-18T18:38:24.070Z,98005.41
2022-12-18T18:41:03.893Z,98006.63
2022-12-18T18:43:35.521Z,98004.97
2022-12-18T18:46:12.365Z,98000.75
2022-12-18T18:48:44.129Z,98000.84
2022-12-18T18:51:21.547Z,97999.31
2022-12-18T18:53:53.821Z,98003.56
2022-12-18T18:56:56.586Z,98010.84
2022-12-18T18:59:17.825Z,98029.91
2022-12-18T19:01:49.888Z,98031.59
2022-12-18T19:04:21.509Z,98021.44
2022-12-18T19:06:53.300Z,98032.97
2022-12-18T19:09:27.596Z,98027.53
2022-12-18T19:12:00.904Z,98014.16
2022-12-18T19:14:32.985Z,98005.44
2022-12-18T19:17:05.845Z,98010.63
2022-12-18T19:19:38.403Z,98012.97
2022-12-18T19:22:10.067Z,98005.91
2022-12-18T19:24:41.893Z,98001.56
2022-12-18T19:27:13.588Z,98002.06
2022-12-18T19:29:45.101Z,98003.06
2022-12-18T19:32:16.877Z,97996.66
2022-12-18T19:34:48.457Z,97997.59
2022-12-18T19:37:21.057Z,97999.53
2022-12-18T19:39:52.827Z,98010.72
2022-12-18T19:42:29.299Z,98010.78
2022-12-18T19:45:03.850Z,98007.31
2022-12-18T19:47:35.546Z,98011.09
2022-12-18T19:50:14.621Z,98015.84
2022-12-18T19:52:46.447Z,98018.75
2022-12-18T19:55:18.230Z,98008.78
2022-12-18T19:57:49.894Z,98012.91
2022-12-18T20:00:21.494Z,98013.19
2022-12-18T20:02:56.745Z,98012.06
2022-12-18T20:05:34.319Z,98012.41
2022-12-18T20:08:05.884Z,98015.09
2022-12-18T20:11:20.746Z,98000.97
2022-12-18T20:13:54.275Z,97984.25
2022-12-18T20:16:25.913Z,97985.88
2022-12-18T20:18:58.983Z,97989.59
2022-12-18T20:21:30.948Z,97992.84
2022-12-18T20:24:02.576Z,97984.47
2022-12-18T20:26:34.313Z,97979.94
2022-12-18T20:29:06.262Z,97980.56
2022-12-18T20:31:37.852Z,97980.88
2022-12-18T20:34:09.519Z,97975.53
2022-12-18T20:36:42.124Z,97979.31
2022-12-18T20:39:13.814Z,97981.25
2022-12-18T20:41:46.060Z,97988.06
2022-12-18T20:44:22.878Z,97980.56
2022-12-18T20:46:57.692Z,97988.50
2022-12-18T20:49:29.447Z,97981.38
2022-12-18T20:52:00.981Z,97970.13
2022-12-18T20:54:32.612Z,97969.25
2022-12-18T20:57:04.913Z,97955.41
2022-12-18T20:59:36.499Z,97964.06
2022-12-18T21:02:13.363Z,97975.13
2022-12-18T21:04:45.208Z,97978.59
2022-12-18T21:07:16.785Z,97980.66
2022-12-18T21:09:48.361Z,97978.75
2022-12-18T21:12:20.234Z,97969.81
2022-12-18T21:14:51.909Z,97960.19
2022-12-18T21:17:23.475Z,97958.16
2022-12-18T21:19:57.553Z,97967.47
2022-12-18T21:22:29.882Z,97965.25
2022-12-18T21:25:01.442Z,97961.59
2022-12-18T21:27:33.331Z,97970.13
2022-12-18T21:30:05.701Z,97969.13
2022-12-18T21:32:37.327Z,97962.56
2022-12-18T21:35:09.267Z,97958.78
2022-12-18T21:37:40.909Z,97956.31
2022-12-18T21:40:13.050Z,97968.72
2022-12-18T21:42:44.858Z,97969.81
2022-12-18T21:45:16.493Z,97964.25
2022-12-18T21:47:48.117Z,97965.19
2022-12-18T21:50:19.660Z,97956.47
2022-12-18T21:52:51.222Z,97957.50
2022-12-18T21:55:22.748Z,97961.56
2022-12-18T21:57:54.324Z,97956.47
2022-12-18T22:00:25.861Z,97957.06
2022-12-18T22:03:01.203Z,97966.38
2022-12-18T22:05:49.693Z,97967.41
2022-12-18T22:08:43.052Z,97964.25
2022-12-18T22:11:15.289Z,97964.59
2022-12-18T22:13:48.928Z,97970.31
2022-12-18T22:16:20.555Z,97972.94
2022-12-18T22:18:52.264Z,97964.09
2022-12-18T22:21:29.574Z,97974.31
2022-12-18T22:24:15.005Z,97971.31
2022-12-18T22:26:47.284Z,97965.44
2022-12-18T22:29:24.160Z,97976.28
2022-12-18T22:31:55.802Z,97969.03
2022-12-18T22:34:27.370Z,97966.16
2022-12-18T22:36:58.943Z,97967.41
2022-12-18T22:39:31.799Z,97976.97
2022-12-18T22:42:03.929Z,97988.72
2022-12-18T22:44:35.654Z,97980.09
2022-12-18T22:47:07.587Z,97976.06
2022-12-18T22:49:39.456Z,97990.25
2022-12-18T22:52:11.595Z,97994.66
2022-12-18T22:54:43.156Z,97983.72
2022-12-18T22:57:14.738Z,97978.59
2022-12-18T22:59:46.340Z,97979.66
2022-12-18T23:02:18.622Z,97982.78
2022-12-18T23:04:50.410Z,97990.25
2022-12-18T23:07:22.015Z,97986.81
2022-12-18T23:09:58.416Z,97982.53
2022-12-18T23:12:32.408Z,97970.22
2022-12-18T23:15:06.541Z,97968.72
2022-12-18T23:17:38.095Z,97977.53
2022-12-18T23:20:11.726Z,97977.19
2022-12-18T23:22:43.301Z,97981.06
2022-12-18T23:25:14.831Z,97976.53
2022-12-18T23:27:46.413Z,97961.88
2022-12-18T23:30:18.203Z,97965.53
2022-12-18T23:32:49.875Z,97962.63
2022-12-18T23:35:21.409Z,97963.75
2022-12-18T23:38:00.631Z,97968.78
2022-12-18T23:40:32.369Z,97964.41
2022-12-18T23:43:03.905Z,97958.13
2022-12-18T23:45:38.248Z,97962.91
2022-12-18T23:48:09.827Z,97958.22
2022-12-18T23:50:41.372Z,97966.25
2022-12-18T23:53:13.423Z,97966.25
2022-12-18T23:55:45.667Z,97964.31
2022-12-18T23:58:20.939Z,97964.44
